Aniara — SKJC — position and weather

sailwx.info

Track history (hours):
 
Tides and Currents Weather Stations Pressure Air Temp Water Temp Dewpoint Dewpoint Depression Visibility Wind Speed Wind Dir Waves Ship Positions

Aniara

Last reported at 2015-May-27 21:33 UTC. Time now 2015-May-27 21:50 UTC.
Position N 45°09' W 125°13'.

Length 232 m; draft 10 m.

Type: Cargo ship. MMSI: 266282000.

Date/timePositionNaut miles runAvg speedWind from/ knotsBaromVisibWave heightAir tempDewpointWater temp
2015-May-27 21:33N 45°09' W 125°13'1514.8
2015-May-27 20:33N 45°24' W 125°13'4514.9
2015-May-27 17:33N 46°08' W 125°15'1515.0
2015-May-27 16:32N 46°23' W 125°16'9815.8
2015-May-27 10:18N 48°02' W 125°14'1215.9
2015-May-27 09:33N 48°14' W 125°11'1615.6
2015-May-27 08:33N 48°29' W 125°04'1514.9
2015-May-27 07:34N 48°30' W 124°41'1615.6
2015-May-27 06:34N 48°24' W 124°20'1515.0
2015-May-27 05:33N 48°18' W 123°58'1414.5
2015-May-27 04:33N 48°15' W 123°37'1313.0
2015-May-27 03:32N 48°09' W 123°20'1717.2
2015-May-27 02:32N 48°12' W 122°54'1616.5
2015-May-27 01:33N 48°01' W 122°37'1817.8
2015-May-27 00:33N 47°45' W 122°26'1818.4
2015-May-26 23:33N 47°26' W 122°23'11 9.9
2015-May-26 22:29N 47°16' W 122°23'0 0.0
2015-May-26 13:06N 47°16' W 122°23'0 0.1
2015-May-26 12:32N 47°16' W 122°23'5 5.0
2015-May-26 11:33N 47°19' W 122°28'1110.6
2015-May-26 10:33N 47°30' W 122°26'1616.1
2015-May-26 09:34N 47°46' W 122°27'1716.6
2015-May-26 08:34N 48°01' W 122°38'1615.7
2015-May-26 07:33N 48°11' W 122°55'1817.8
2015-May-26 06:33N 48°10' W 123°22'1110.7
2015-May-26 05:32N 48°14' W 123°37'1211.1
2015-May-26 04:29N 48°14' W 123°55'6212.4
2015-May-25 23:30N 48°29' W 125°25'2914.8
2015-May-25 21:33N 48°29' W 126°09'  
Track history (hours):
 
Tides and Currents Weather Stations Pressure Air Temp Water Temp Dewpoint Dewpoint Depression Visibility Wind Speed Wind Dir Waves Ship Positions

Aniara

Last reported at 2015-May-27 21:33 UTC. Time now 2015-May-27 21:50 UTC.
Position N 45°09' W 125°13'.

Length 232 m; draft 10 m.

Type: Cargo ship. MMSI: 266282000.

Date/timePositionNaut miles runAvg speedWind from/ knotsBaromVisibWave heightAir tempDewpointWater temp
2015-May-27 21:33N 45°09' W 125°13'1514.8
2015-May-27 20:33N 45°24' W 125°13'4514.9
2015-May-27 17:33N 46°08' W 125°15'1515.0
2015-May-27 16:32N 46°23' W 125°16'9815.8
2015-May-27 10:18N 48°02' W 125°14'1215.9
2015-May-27 09:33N 48°14' W 125°11'1615.6
2015-May-27 08:33N 48°29' W 125°04'1514.9
2015-May-27 07:34N 48°30' W 124°41'1615.6
2015-May-27 06:34N 48°24' W 124°20'1515.0
2015-May-27 05:33N 48°18' W 123°58'1414.5
2015-May-27 04:33N 48°15' W 123°37'1313.0
2015-May-27 03:32N 48°09' W 123°20'1717.2
2015-May-27 02:32N 48°12' W 122°54'1616.5
2015-May-27 01:33N 48°01' W 122°37'1817.8
2015-May-27 00:33N 47°45' W 122°26'1818.4
2015-May-26 23:33N 47°26' W 122°23'11 9.9
2015-May-26 22:29N 47°16' W 122°23'0 0.0
2015-May-26 13:06N 47°16' W 122°23'0 0.1
2015-May-26 12:32N 47°16' W 122°23'5 5.0
2015-May-26 11:33N 47°19' W 122°28'1110.6
2015-May-26 10:33N 47°30' W 122°26'1616.1
2015-May-26 09:34N 47°46' W 122°27'1716.6
2015-May-26 08:34N 48°01' W 122°38'1615.7
2015-May-26 07:33N 48°11' W 122°55'1817.8
2015-May-26 06:33N 48°10' W 123°22'1110.7
2015-May-26 05:32N 48°14' W 123°37'1211.1
2015-May-26 04:29N 48°14' W 123°55'6212.4
2015-May-25 23:30N 48°29' W 125°25'2914.8
2015-May-25 21:33N 48°29' W 126°09'  

Dump ship's entire track history